createdAt,value
2018-03-03T00:01:48.883Z,80.80
2018-03-03T00:04:16.771Z,80.90
2018-03-03T00:06:44.316Z,81.40
2018-03-03T00:09:11.875Z,80.60
2018-03-03T00:11:39.416Z,81.20
2018-03-03T00:14:06.990Z,80.60
2018-03-03T00:16:34.540Z,80.70
2018-03-03T00:19:02.106Z,80.90
2018-03-03T00:21:29.664Z,80.70
2018-03-03T00:23:57.223Z,80.80
2018-03-03T00:26:24.776Z,80.90
2018-03-03T00:28:52.332Z,80.90
2018-03-03T00:31:20.675Z,81.00
2018-03-03T00:33:48.236Z,81.00
2018-03-03T00:36:15.800Z,81.10
2018-03-03T00:38:43.713Z,81.00
2018-03-03T00:41:11.551Z,81.00
2018-03-03T00:43:39.146Z,81.00
2018-03-03T00:46:06.712Z,81.00
2018-03-03T00:48:34.255Z,80.90
2018-03-03T00:51:01.823Z,80.80
2018-03-03T00:53:29.375Z,81.00
2018-03-03T00:55:57.707Z,81.30
2018-03-03T00:58:25.256Z,81.30
2018-03-03T01:00:52.839Z,81.50
2018-03-03T01:03:20.397Z,81.70
2018-03-03T01:05:47.989Z,81.80
2018-03-03T01:08:15.541Z,81.90
2018-03-03T01:10:43.090Z,81.90
2018-03-03T01:13:10.663Z,82.30
2018-03-03T01:15:38.223Z,82.90
2018-03-03T01:18:05.787Z,83.10
2018-03-03T01:20:33.348Z,83.30
2018-03-03T01:23:00.911Z,83.60
2018-03-03T01:25:28.475Z,83.60
2018-03-03T01:27:56.039Z,83.80
2018-03-03T01:30:23.575Z,84.00
2018-03-03T01:32:51.899Z,84.10
2018-03-03T01:35:19.445Z,84.10
2018-03-03T01:37:47.794Z,84.30
2018-03-03T01:40:15.363Z,84.30
2018-03-03T01:42:42.916Z,84.60
2018-03-03T01:45:10.479Z,85.00
2018-03-03T01:47:38.024Z,85.00
2018-03-03T01:50:06.368Z,85.00
2018-03-03T01:52:33.931Z,85.00
2018-03-03T01:55:01.495Z,85.00
2018-03-03T01:57:29.060Z,85.00
2018-03-03T01:59:56.629Z,85.10
2018-03-03T02:02:24.174Z,85.20
2018-03-03T02:04:51.752Z,85.20
2018-03-03T02:07:19.295Z,85.40
2018-03-03T02:09:46.863Z,85.50
2018-03-03T02:12:14.416Z,85.70
2018-03-03T02:14:41.988Z,85.80
2018-03-03T02:17:09.536Z,85.90
2018-03-03T02:19:37.129Z,86.10
2018-03-03T02:22:04.676Z,86.30
2018-03-03T02:24:32.216Z,86.30
2018-03-03T02:27:00.543Z,86.50
2018-03-03T02:29:31.008Z,86.50
2018-03-03T02:31:58.605Z,86.80
2018-03-03T02:34:26.920Z,87.20
2018-03-03T02:36:54.488Z,87.10
2018-03-03T02:39:22.037Z,87.40
2018-03-03T02:41:50.364Z,87.70
2018-03-03T02:44:17.913Z,87.60
2018-03-03T02:46:46.260Z,88.30
2018-03-03T02:49:13.806Z,88.30
2018-03-03T02:51:41.365Z,88.70
2018-03-03T02:54:10.190Z,89.80
2018-03-03T02:56:37.757Z,89.10
2018-03-03T02:59:05.320Z,89.10
2018-03-03T03:01:33.888Z,89.30
2018-03-03T03:04:01.461Z,89.50
2018-03-03T03:06:29.780Z,89.70
2018-03-03T03:08:58.065Z,90.00
2018-03-03T03:11:25.625Z,89.90
2018-03-03T03:13:53.194Z,90.00
2018-03-03T03:16:20.747Z,90.10
2018-03-03T03:18:48.310Z,90.10
2018-03-03T03:21:15.868Z,90.10
2018-03-03T03:23:43.455Z,90.20
2018-03-03T03:26:11.795Z,90.50
2018-03-03T03:28:39.339Z,90.50
2018-03-03T03:31:06.898Z,90.60
2018-03-03T03:33:35.207Z,91.40
2018-03-03T03:36:02.811Z,90.70
2018-03-03T03:38:30.357Z,90.90
2018-03-03T03:40:57.968Z,90.80
2018-03-03T03:43:25.519Z,90.90
2018-03-03T03:45:53.080Z,91.00
2018-03-03T03:48:20.624Z,91.00
2018-03-03T03:50:48.955Z,91.10
2018-03-03T03:53:16.503Z,91.10
2018-03-03T03:55:44.120Z,91.10
2018-03-03T03:58:11.643Z,91.20
2018-03-03T04:00:39.183Z,91.20
2018-03-03T04:03:06.752Z,91.30
2018-03-03T04:05:34.296Z,91.60
2018-03-03T04:08:01.861Z,91.40
2018-03-03T04:10:29.408Z,91.30
2018-03-03T04:12:56.966Z,91.40
2018-03-03T04:15:25.271Z,91.50
2018-03-03T04:17:52.935Z,91.50
2018-03-03T04:20:20.487Z,91.50
2018-03-03T04:22:48.844Z,91.60
2018-03-03T04:25:16.396Z,91.50
2018-03-03T04:27:43.948Z,91.70
2018-03-03T04:30:11.512Z,91.70
2018-03-03T04:32:39.052Z,91.80
2018-03-03T04:35:06.624Z,91.80
2018-03-03T04:37:34.184Z,91.90
2018-03-03T04:40:01.751Z,91.90
2018-03-03T04:42:29.308Z,91.90
2018-03-03T04:44:56.875Z,91.80
2018-03-03T04:47:24.418Z,91.80
2018-03-03T04:49:52.001Z,91.80
2018-03-03T04:52:19.550Z,91.90
2018-03-03T04:54:47.867Z,91.90
2018-03-03T04:57:15.431Z,91.80
2018-03-03T04:59:48.510Z,91.90
2018-03-03T05:02:32.632Z,92.00
2018-03-03T05:05:11.881Z,92.00
2018-03-03T05:07:45.119Z,92.10
2018-03-03T05:10:24.103Z,92.10
2018-03-03T05:16:07.750Z,92.30
2018-03-03T05:21:49.780Z,92.30
2018-03-03T05:24:24.176Z,92.30
2018-03-03T05:26:57.315Z,92.40
2018-03-03T05:32:37.053Z,92.60
2018-03-03T05:35:17.283Z,92.40
2018-03-03T05:40:57.787Z,92.50
2018-03-03T05:43:29.827Z,92.70
2018-03-03T05:55:12.636Z,92.90
2018-03-03T06:03:55.701Z,92.90
2018-03-03T06:06:46.421Z,92.90
2018-03-03T06:09:15.940Z,92.80
2018-03-03T06:11:43.581Z,92.80
2018-03-03T06:14:11.717Z,92.80
2018-03-03T06:16:39.290Z,92.80
2018-03-03T06:22:12.117Z,92.90
2018-03-03T06:24:45.778Z,92.70
2018-03-03T06:27:13.423Z,92.30
2018-03-03T06:29:40.987Z,91.30
2018-03-03T06:32:13.516Z,90.50
2018-03-03T06:34:42.879Z,89.80
2018-03-03T06:39:14.532Z,88.50
2018-03-03T06:48:25.643Z,83.30
2018-03-03T06:50:53.276Z,81.50
2018-03-03T06:53:42.248Z,79.90
2018-03-03T06:56:14.109Z,79.30
2018-03-03T06:58:52.529Z,79.10
2018-03-03T07:01:23.630Z,79.10
2018-03-03T07:03:55.170Z,79.50
2018-03-03T07:06:22.816Z,80.10
2018-03-03T07:08:50.674Z,79.90
2018-03-03T07:11:18.228Z,80.00
2018-03-03T07:13:56.621Z,80.00
2018-03-03T07:16:25.012Z,80.20
2018-03-03T07:18:52.584Z,79.60
2018-03-03T07:21:25.203Z,80.20
2018-03-03T07:24:08.994Z,79.00
2018-03-03T07:26:36.765Z,78.90
2018-03-03T07:32:15.480Z,78.50
2018-03-03T07:37:47.841Z,78.30
2018-03-03T07:43:08.416Z,78.40
2018-03-03T07:48:52.525Z,80.40
2018-03-03T07:54:28.736Z,79.00
2018-03-03T07:57:13.767Z,78.80
2018-03-03T08:08:20.934Z,77.00
2018-03-03T08:10:48.547Z,76.30
2018-03-03T08:13:16.087Z,76.40
2018-03-03T08:15:45.421Z,75.60
2018-03-03T08:18:13.036Z,75.20
2018-03-03T08:20:40.600Z,73.60
2018-03-03T08:23:15.369Z,72.90
2018-03-03T08:25:42.955Z,71.40
2018-03-03T08:28:10.525Z,71.60
2018-03-03T08:42:08.487Z,69.80
2018-03-03T08:44:36.118Z,69.20
2018-03-03T08:47:03.725Z,68.40
2018-03-03T08:55:44.152Z,65.30
2018-03-03T08:58:12.460Z,62.70
2018-03-03T09:00:40.040Z,62.70
2018-03-03T09:03:07.582Z,63.00
2018-03-03T09:05:35.892Z,61.60
2018-03-03T09:08:03.492Z,61.60
2018-03-03T09:10:31.046Z,60.10
2018-03-03T09:12:58.644Z,59.50
2018-03-03T09:15:28.206Z,59.40
2018-03-03T09:18:02.400Z,58.10
2018-03-03T09:20:29.948Z,58.10
2018-03-03T09:22:57.515Z,58.90
2018-03-03T09:25:25.075Z,57.80
2018-03-03T09:27:52.640Z,56.60
2018-03-03T09:30:21.658Z,57.10
2018-03-03T09:32:49.221Z,57.30
2018-03-03T09:35:16.765Z,58.40
2018-03-03T09:37:44.340Z,57.80
2018-03-03T09:43:10.672Z,57.50
2018-03-03T09:45:44.222Z,57.60
2018-03-03T09:48:52.336Z,58.00
2018-03-03T09:51:20.113Z,57.60
2018-03-03T09:53:51.116Z,56.90
2018-03-03T09:56:18.668Z,58.20
2018-03-03T09:58:46.593Z,56.90
2018-03-03T10:01:18.092Z,57.50
2018-03-03T10:03:46.073Z,57.00
2018-03-03T10:06:14.384Z,56.00
2018-03-03T10:08:41.954Z,55.90
2018-03-03T10:15:42.178Z,55.20
2018-03-03T10:18:09.745Z,55.30
2018-03-03T10:20:40.959Z,55.90
2018-03-03T10:23:09.268Z,54.40
2018-03-03T10:25:38.572Z,54.30
2018-03-03T10:28:06.182Z,53.30
2018-03-03T10:33:07.730Z,54.60
2018-03-03T10:35:36.528Z,53.90
2018-03-03T10:38:10.012Z,53.00
2018-03-03T10:40:37.583Z,52.40
2018-03-03T10:43:05.123Z,51.80
2018-03-03T10:45:32.684Z,51.10
2018-03-03T10:48:00.228Z,50.80
2018-03-03T10:50:27.870Z,51.90
2018-03-03T10:56:12.590Z,52.20
2018-03-03T10:58:44.786Z,51.40
2018-03-03T11:04:01.381Z,50.70
2018-03-03T12:46:53.710Z,50.00
2018-03-03T12:49:21.329Z,46.60
2018-03-03T12:51:48.932Z,45.90
2018-03-03T12:54:16.502Z,45.80
2018-03-03T12:56:44.071Z,45.90
2018-03-03T12:59:12.669Z,46.00
2018-03-03T13:01:40.229Z,46.40
2018-03-03T13:04:07.816Z,47.10
2018-03-03T13:06:35.373Z,46.60
2018-03-03T13:09:02.957Z,46.70
2018-03-03T13:11:30.499Z,45.30
2018-03-03T13:13:58.831Z,44.70
2018-03-03T13:16:27.448Z,44.60
2018-03-03T13:19:11.609Z,46.20
2018-03-03T13:21:39.190Z,45.00
2018-03-03T13:24:06.763Z,45.20
2018-03-03T13:26:34.333Z,44.80
2018-03-03T13:29:02.856Z,44.60
2018-03-03T13:31:31.159Z,44.90
2018-03-03T13:33:58.727Z,44.90
2018-03-03T13:36:26.268Z,45.40
2018-03-03T13:38:53.843Z,45.90
2018-03-03T13:41:21.375Z,45.60
2018-03-03T13:43:48.940Z,45.90
2018-03-03T13:46:16.498Z,45.80
2018-03-03T13:48:44.045Z,45.90
2018-03-03T13:51:12.377Z,46.70
2018-03-03T13:53:39.919Z,46.60
2018-03-03T13:56:07.503Z,45.30
2018-03-03T13:58:36.432Z,45.90
2018-03-03T14:01:13.109Z,45.80
2018-03-03T14:03:40.992Z,45.60
2018-03-03T14:06:11.072Z,46.60
2018-03-03T14:08:44.948Z,46.30
2018-03-03T14:11:12.508Z,45.60
2018-03-03T14:13:40.044Z,46.10
2018-03-03T14:16:08.368Z,45.90
2018-03-03T14:18:35.902Z,46.50
2018-03-03T14:21:04.220Z,46.10
2018-03-03T14:23:31.770Z,46.10
2018-03-03T14:26:00.092Z,45.10
2018-03-03T14:28:27.646Z,45.20
2018-03-03T14:30:55.192Z,44.90
2018-03-03T14:33:23.531Z,44.70
2018-03-03T14:35:51.089Z,44.70
2018-03-03T14:38:18.667Z,44.70
2018-03-03T14:40:46.204Z,45.00
2018-03-03T14:43:14.527Z,45.80
2018-03-03T14:45:42.083Z,45.80
2018-03-03T14:48:09.635Z,46.10
2018-03-03T14:50:37.968Z,45.60
2018-03-03T14:53:05.531Z,45.60
2018-03-03T14:55:33.067Z,45.40
2018-03-03T14:58:01.389Z,45.80
2018-03-03T15:00:28.923Z,45.70
2018-03-03T15:02:57.259Z,46.50
2018-03-03T15:05:24.792Z,46.50
2018-03-03T15:07:52.337Z,46.30
2018-03-03T15:10:19.891Z,46.30
2018-03-03T15:12:47.451Z,46.80
2018-03-03T15:15:14.993Z,46.90
2018-03-03T15:17:42.560Z,47.10
2018-03-03T15:20:10.100Z,46.50
2018-03-03T15:22:37.636Z,46.90
2018-03-03T15:25:05.962Z,47.70
2018-03-03T15:27:34.263Z,48.00
2018-03-03T15:30:01.843Z,48.10
2018-03-03T15:32:29.392Z,48.30
2018-03-03T15:34:57.719Z,48.60
2018-03-03T15:37:25.254Z,48.80
2018-03-03T15:39:53.591Z,48.40
2018-03-03T15:42:21.127Z,48.70
2018-03-03T15:44:49.471Z,49.30
2018-03-03T15:47:17.067Z,49.30
2018-03-03T15:49:44.612Z,49.80
2018-03-03T15:52:12.174Z,49.90
2018-03-03T15:54:39.715Z,49.60
2018-03-03T15:57:07.276Z,49.90
2018-03-03T15:59:36.544Z,49.70
2018-03-03T16:02:12.229Z,49.70
2018-03-03T16:04:45.329Z,50.20
2018-03-03T16:07:12.891Z,50.40
2018-03-03T16:09:41.236Z,50.10
2018-03-03T16:12:08.795Z,50.60
2018-03-03T16:14:37.155Z,50.80
2018-03-03T16:17:07.335Z,51.50
2018-03-03T16:19:33.116Z,51.40
2018-03-03T16:22:01.653Z,51.50
2018-03-03T16:24:29.208Z,51.70
2018-03-03T16:26:56.772Z,51.70
2018-03-03T16:29:26.256Z,52.50
2018-03-03T16:31:57.330Z,52.50
2018-03-03T16:34:25.865Z,53.00
2018-03-03T16:36:53.504Z,52.90
2018-03-03T16:39:21.065Z,53.50
2018-03-03T16:41:48.632Z,53.80
2018-03-03T16:44:16.175Z,54.30
2018-03-03T16:46:43.768Z,55.00
2018-03-03T16:49:11.324Z,55.40
2018-03-03T16:51:38.901Z,55.60
2018-03-03T16:54:07.809Z,55.90
2018-03-03T16:56:35.349Z,56.10
2018-03-03T16:59:03.331Z,56.50
2018-03-03T17:01:30.896Z,56.80
2018-03-03T17:03:58.475Z,57.20
2018-03-03T17:06:26.208Z,57.40
2018-03-03T17:08:54.544Z,58.20
2018-03-03T17:11:23.348Z,58.00
2018-03-03T17:13:50.908Z,58.40
2018-03-03T17:16:19.668Z,58.70
2018-03-03T17:18:47.773Z,59.10
2018-03-03T17:21:15.328Z,59.20
2018-03-03T17:23:45.344Z,59.80
2018-03-03T17:26:12.914Z,59.80
2018-03-03T17:28:41.634Z,60.00
2018-03-03T17:31:09.945Z,60.90
2018-03-03T17:33:37.508Z,60.70
2018-03-03T17:36:08.982Z,61.00
2018-03-03T17:38:36.555Z,61.30
2018-03-03T17:41:04.177Z,61.40
2018-03-03T17:43:31.781Z,61.80
2018-03-03T17:46:00.698Z,62.40
2018-03-03T17:48:28.297Z,62.30
2018-03-03T17:50:55.877Z,62.60
2018-03-03T17:53:24.013Z,62.70
2018-03-03T17:55:51.692Z,62.90
2018-03-03T17:58:19.257Z,63.00
2018-03-03T18:00:53.799Z,63.40
2018-03-03T18:03:21.357Z,63.40
2018-03-03T18:05:49.724Z,64.00
2018-03-03T18:08:17.279Z,64.00
2018-03-03T18:10:44.843Z,64.40
2018-03-03T18:13:12.383Z,64.80
2018-03-03T18:15:39.952Z,65.20
2018-03-03T18:18:07.500Z,65.60
2018-03-03T18:20:35.824Z,67.30
2018-03-03T18:23:03.385Z,66.40
2018-03-03T18:25:30.953Z,66.70
2018-03-03T18:27:59.255Z,67.20
2018-03-03T18:30:27.497Z,67.20
2018-03-03T18:32:55.053Z,67.20
2018-03-03T18:35:22.620Z,67.50
2018-03-03T18:37:50.506Z,67.60
2018-03-03T18:40:18.123Z,67.80
2018-03-03T18:42:46.429Z,68.30
2018-03-03T18:45:13.974Z,68.30
2018-03-03T18:47:42.311Z,68.80
2018-03-03T18:50:09.867Z,68.80
2018-03-03T18:52:37.419Z,68.90
2018-03-03T18:55:04.959Z,69.00
2018-03-03T18:57:32.520Z,69.20
2018-03-03T19:00:00.080Z,70.10
2018-03-03T19:02:27.662Z,69.60
2018-03-03T19:04:55.198Z,69.80
2018-03-03T19:07:22.771Z,70.00
2018-03-03T19:09:50.323Z,70.20
2018-03-03T19:12:17.875Z,70.60
2018-03-03T19:14:46.183Z,71.10
2018-03-03T19:17:13.768Z,71.10
2018-03-03T19:19:41.307Z,71.60
2018-03-03T19:22:09.617Z,72.80
2018-03-03T19:24:37.175Z,72.60
2018-03-03T19:27:05.485Z,73.30
2018-03-03T19:29:33.043Z,73.20
2018-03-03T19:32:01.352Z,73.50
2018-03-03T19:34:28.937Z,73.50
2018-03-03T19:36:56.481Z,73.40
2018-03-03T19:39:24.065Z,73.50
2018-03-03T19:41:51.608Z,73.60
2018-03-03T19:44:19.947Z,74.60
2018-03-03T19:46:47.504Z,74.60
2018-03-03T19:49:15.128Z,75.30
2018-03-03T19:51:42.668Z,75.60
2018-03-03T19:54:10.243Z,75.60
2018-03-03T19:56:37.781Z,75.50
2018-03-03T19:59:05.330Z,76.20
2018-03-03T20:01:33.667Z,76.60
2018-03-03T20:04:01.204Z,76.60
2018-03-03T20:06:28.762Z,76.80
2018-03-03T20:08:56.312Z,77.10
2018-03-03T20:11:24.340Z,77.30
2018-03-03T20:13:52.752Z,77.70
2018-03-03T20:16:20.372Z,77.60
2018-03-03T20:18:47.940Z,78.00
2018-03-03T20:21:15.532Z,78.00
2018-03-03T20:23:44.018Z,78.30
2018-03-03T20:26:11.909Z,78.30
2018-03-03T20:28:39.783Z,78.10
2018-03-03T20:31:07.545Z,78.00
2018-03-03T20:33:35.379Z,77.70
2018-03-03T20:36:03.067Z,77.50
2018-03-03T20:38:31.732Z,77.20
2018-03-03T20:40:59.513Z,77.20
2018-03-03T20:43:27.313Z,77.10
2018-03-03T20:45:55.724Z,77.00
2018-03-03T20:48:24.303Z,77.00
2018-03-03T20:50:52.688Z,77.00
2018-03-03T20:53:20.546Z,77.00
2018-03-03T20:55:48.292Z,77.30
2018-03-03T20:58:17.081Z,77.40
2018-03-03T21:00:44.901Z,77.60
2018-03-03T21:03:12.803Z,77.60
2018-03-03T21:05:41.387Z,78.10
2018-03-03T21:08:09.278Z,78.00
2018-03-03T21:10:37.111Z,78.10
2018-03-03T21:13:05.487Z,78.40
2018-03-03T21:15:33.810Z,78.40
2018-03-03T21:18:01.393Z,78.40
2018-03-03T21:20:28.953Z,78.40
2018-03-03T21:22:56.514Z,78.70
2018-03-03T21:25:24.079Z,78.80
2018-03-03T21:27:53.379Z,79.00
2018-03-03T21:30:21.747Z,79.10
2018-03-03T21:32:49.297Z,79.00
2018-03-03T21:35:17.639Z,79.00
2018-03-03T21:37:45.946Z,79.20
2018-03-03T21:40:13.499Z,79.20
2018-03-03T21:42:43.439Z,79.40
2018-03-03T21:45:11.010Z,79.40
2018-03-03T21:47:38.562Z,79.60
2018-03-03T21:50:06.172Z,79.90
2018-03-03T21:52:33.708Z,79.90
2018-03-03T21:55:01.265Z,80.20
2018-03-03T21:57:28.829Z,80.20
2018-03-03T21:59:56.384Z,80.10
2018-03-03T22:02:23.938Z,80.00
2018-03-03T22:04:51.476Z,79.90
2018-03-03T22:07:19.801Z,80.00
2018-03-03T22:09:47.344Z,80.00
2018-03-03T22:12:14.929Z,80.30
2018-03-03T22:14:42.480Z,80.40
2018-03-03T22:17:11.024Z,80.20
2018-03-03T22:19:38.568Z,80.20
2018-03-03T22:22:06.151Z,80.20
2018-03-03T22:24:33.716Z,80.50
2018-03-03T22:27:01.259Z,80.40
2018-03-03T22:29:29.597Z,80.60
2018-03-03T22:31:57.151Z,80.50
2018-03-03T22:34:24.724Z,80.70
2018-03-03T22:36:52.303Z,81.20
2018-03-03T22:39:19.877Z,81.30
2018-03-03T22:41:48.418Z,81.50
2018-03-03T22:44:16.789Z,81.80
2018-03-03T22:46:44.384Z,81.80
2018-03-03T22:49:12.773Z,82.30
2018-03-03T22:51:41.161Z,82.50
2018-03-03T22:54:09.520Z,82.60
2018-03-03T22:56:37.088Z,82.60
2018-03-03T22:59:04.648Z,82.90
2018-03-03T23:01:32.241Z,82.90
2018-03-03T23:03:59.804Z,83.00
2018-03-03T23:06:28.396Z,83.00
2018-03-03T23:08:55.948Z,82.90
2018-03-03T23:11:23.506Z,83.00
2018-03-03T23:13:51.047Z,83.10
2018-03-03T23:16:18.604Z,83.10
2018-03-03T23:18:46.151Z,83.50
2018-03-03T23:21:13.724Z,83.70
2018-03-03T23:23:41.275Z,83.60
2018-03-03T23:26:08.850Z,83.60
2018-03-03T23:28:36.387Z,83.50
2018-03-03T23:31:04.708Z,84.20
2018-03-03T23:33:32.268Z,84.20
2018-03-03T23:35:59.820Z,84.20
2018-03-03T23:38:28.874Z,84.10
2018-03-03T23:40:56.453Z,84.00
2018-03-03T23:43:24.012Z,84.30
2018-03-03T23:45:52.296Z,84.60
2018-03-03T23:48:19.868Z,84.50
2018-03-03T23:50:47.424Z,84.60
2018-03-03T23:53:15.010Z,84.90
2018-03-03T23:55:43.173Z,85.10
2018-03-03T23:58:10.800Z,85.10
